createdAt,value
2023-02-19T00:00:05.163Z,99.90
2023-02-19T00:02:35.621Z,99.90
2023-02-19T00:05:03.923Z,99.90
2023-02-19T00:07:33.683Z,99.90
2023-02-19T00:10:01.827Z,99.90
2023-02-19T00:12:30.371Z,99.90
2023-02-19T00:14:58.662Z,99.90
2023-02-19T00:17:27.293Z,99.90
2023-02-19T00:19:55.575Z,99.90
2023-02-19T00:22:24.022Z,99.90
2023-02-19T00:24:53.510Z,99.90
2023-02-19T00:27:22.041Z,99.90
2023-02-19T00:29:50.295Z,99.90
2023-02-19T00:32:19.069Z,99.90
2023-02-19T00:34:47.400Z,99.90
2023-02-19T00:37:15.858Z,99.90
2023-02-19T00:39:44.042Z,99.90
2023-02-19T00:42:14.050Z,99.90
2023-02-19T00:44:42.347Z,99.90
2023-02-19T00:47:10.846Z,99.90
2023-02-19T00:49:39.283Z,99.90
2023-02-19T00:52:07.779Z,99.90
2023-02-19T00:54:36.019Z,99.90
2023-02-19T00:57:06.372Z,99.90
2023-02-19T00:59:36.875Z,99.90
2023-02-19T01:02:05.453Z,99.90
2023-02-19T01:04:33.935Z,99.90
2023-02-19T01:07:02.498Z,99.90
2023-02-19T01:09:30.870Z,99.90
2023-02-19T01:11:59.563Z,99.90
2023-02-19T01:14:28.205Z,99.90
2023-02-19T01:16:58.150Z,99.90
2023-02-19T01:19:26.435Z,99.90
2023-02-19T01:21:55.035Z,99.90
2023-02-19T01:24:23.242Z,99.90
2023-02-19T01:26:51.737Z,99.90
2023-02-19T01:29:20.003Z,99.90
2023-02-19T01:31:48.845Z,99.90
2023-02-19T01:34:18.617Z,99.90
2023-02-19T01:36:47.067Z,99.90
2023-02-19T01:39:15.469Z,99.90
2023-02-19T01:41:43.934Z,99.90
2023-02-19T01:44:45.298Z,99.90
2023-02-19T01:47:14.813Z,99.90
2023-02-19T01:49:49.707Z,99.90
2023-02-19T01:52:23.993Z,99.90
2023-02-19T01:54:52.667Z,99.90
2023-02-19T01:57:24.800Z,99.90
2023-02-19T01:59:55.997Z,99.90
2023-02-19T02:02:27.451Z,99.90
2023-02-19T02:04:58.633Z,99.90
2023-02-19T02:07:45.014Z,99.90
2023-02-19T02:10:22.405Z,99.90
2023-02-19T02:12:52.075Z,99.90
2023-02-19T02:15:22.462Z,99.90
2023-02-19T02:17:58.013Z,99.90
2023-02-19T02:20:52.467Z,99.90
2023-02-19T02:23:35.901Z,99.90
2023-02-19T02:26:16.675Z,99.90
2023-02-19T02:29:14.230Z,99.90
2023-02-19T02:31:46.503Z,99.90
2023-02-19T02:34:20.090Z,99.90
2023-02-19T02:36:52.753Z,99.90
2023-02-19T02:39:24.968Z,99.90
2023-02-19T02:42:11.919Z,99.90
2023-02-19T02:44:42.065Z,99.90
2023-02-19T02:47:32.210Z,99.90
2023-02-19T02:50:07.197Z,99.90
2023-02-19T02:52:56.895Z,99.90
2023-02-19T02:55:27.012Z,99.90
2023-02-19T02:57:55.648Z,99.90
2023-02-19T03:00:47.119Z,99.90
2023-02-19T03:03:19.737Z,99.90
2023-02-19T03:05:53.936Z,99.90
2023-02-19T03:08:28.241Z,99.90
2023-02-19T03:11:22.527Z,99.90
2023-02-19T03:14:11.142Z,99.90
2023-02-19T03:16:59.200Z,99.90
2023-02-19T03:19:30.726Z,99.90
2023-02-19T03:22:10.332Z,99.90
2023-02-19T03:25:01.112Z,99.90
2023-02-19T03:27:33.696Z,99.90
2023-02-19T03:30:06.135Z,99.90
2023-02-19T03:32:39.544Z,99.90
2023-02-19T03:35:12.782Z,99.90
2023-02-19T03:37:46.258Z,99.90
2023-02-19T03:40:15.021Z,99.90
2023-02-19T03:42:50.510Z,99.90
2023-02-19T03:45:51.469Z,99.90
2023-02-19T03:48:41.536Z,99.90
2023-02-19T03:51:21.715Z,99.90
2023-02-19T03:53:57.544Z,99.90
2023-02-19T03:56:34.871Z,99.90
2023-02-19T03:59:10.017Z,99.90
2023-02-19T04:01:44.685Z,99.90
2023-02-19T04:04:18.972Z,99.90
2023-02-19T04:06:55.173Z,99.90
2023-02-19T04:09:26.293Z,99.90
2023-02-19T04:11:56.222Z,99.90
2023-02-19T04:14:29.300Z,99.90
2023-02-19T04:17:01.613Z,99.90
2023-02-19T04:19:34.118Z,99.90
2023-02-19T04:22:06.080Z,99.90
2023-02-19T04:24:38.545Z,99.90
2023-02-19T04:27:08.132Z,99.90
2023-02-19T04:29:39.030Z,99.90
2023-02-19T04:32:08.188Z,99.90
2023-02-19T04:34:36.866Z,99.90
2023-02-19T04:37:07.658Z,99.90
2023-02-19T04:39:36.763Z,99.90
2023-02-19T04:42:05.645Z,99.90
2023-02-19T04:44:34.909Z,99.90
2023-02-19T04:47:03.360Z,99.90
2023-02-19T04:49:31.956Z,99.90
2023-02-19T04:52:00.350Z,99.90
2023-02-19T04:54:30.150Z,99.90
2023-02-19T04:56:58.798Z,99.90
2023-02-19T04:59:27.524Z,99.90
2023-02-19T05:01:57.460Z,99.90
2023-02-19T05:04:26.221Z,99.90
2023-02-19T05:06:54.741Z,99.90
2023-02-19T05:09:23.321Z,99.90
2023-02-19T05:11:52.898Z,99.90
2023-02-19T05:14:21.533Z,99.90
2023-02-19T05:16:49.799Z,99.90
2023-02-19T05:19:18.431Z,99.90
2023-02-19T05:21:46.718Z,99.90
2023-02-19T05:24:15.417Z,99.90
2023-02-19T05:26:45.428Z,99.90
2023-02-19T05:29:15.461Z,99.90
2023-02-19T05:31:44.487Z,99.90
2023-02-19T05:34:13.663Z,99.90
2023-02-19T05:36:42.308Z,99.90
2023-02-19T05:39:13.396Z,99.90
2023-02-19T05:41:41.736Z,99.90
2023-02-19T05:44:11.480Z,99.90
2023-02-19T05:46:41.306Z,99.90
2023-02-19T05:49:10.049Z,99.90
2023-02-19T05:51:38.366Z,99.90
2023-02-19T05:54:07.177Z,99.90
2023-02-19T05:56:37.408Z,99.90
2023-02-19T05:59:08.543Z,99.90
2023-02-19T06:01:37.139Z,99.90
2023-02-19T06:04:07.379Z,99.90
2023-02-19T06:06:35.650Z,99.90
2023-02-19T06:09:04.379Z,99.90
2023-02-19T06:11:32.724Z,99.90
2023-02-19T06:14:01.816Z,99.90
2023-02-19T06:16:32.209Z,99.90
2023-02-19T06:19:03.168Z,99.90
2023-02-19T06:21:33.067Z,99.90
2023-02-19T06:24:06.244Z,99.90
2023-02-19T06:26:34.569Z,99.90
2023-02-19T06:29:03.625Z,99.90
2023-02-19T06:31:32.035Z,99.90
2023-02-19T06:34:00.948Z,99.90
2023-02-19T06:36:29.200Z,99.90
2023-02-19T06:39:02.373Z,99.90
2023-02-19T06:41:30.676Z,99.90
2023-02-19T06:43:59.322Z,99.90
2023-02-19T06:46:27.666Z,99.90
2023-02-19T06:48:56.425Z,99.90
2023-02-19T06:51:27.175Z,99.90
2023-02-19T06:53:55.853Z,99.90
2023-02-19T06:56:28.435Z,99.90
2023-02-19T06:58:59.702Z,99.90
2023-02-19T07:01:29.283Z,99.90
2023-02-19T07:03:58.237Z,99.90
2023-02-19T07:06:27.602Z,99.90
2023-02-19T07:08:57.711Z,99.90
2023-02-19T07:11:31.047Z,99.90
2023-02-19T07:14:01.439Z,99.90
2023-02-19T07:16:31.583Z,99.90
2023-02-19T07:19:01.436Z,99.90
2023-02-19T07:21:37.589Z,99.90
2023-02-19T07:24:06.995Z,99.90
2023-02-19T07:26:37.363Z,99.90
2023-02-19T07:29:06.177Z,99.90
2023-02-19T07:31:34.708Z,99.90
2023-02-19T07:34:03.686Z,99.90
2023-02-19T07:36:32.012Z,99.90
2023-02-19T07:39:01.576Z,99.90
2023-02-19T07:41:29.848Z,99.90
2023-02-19T07:44:00.124Z,99.90
2023-02-19T07:46:30.076Z,99.90
2023-02-19T07:48:58.663Z,99.90
2023-02-19T07:51:27.187Z,99.90
2023-02-19T07:53:56.142Z,99.90
2023-02-19T07:56:24.602Z,99.90
2023-02-19T07:58:53.361Z,99.90
2023-02-19T08:01:45.208Z,99.90
2023-02-19T08:04:14.260Z,99.90
2023-02-19T08:06:43.636Z,99.90
2023-02-19T08:09:14.163Z,99.90
2023-02-19T08:12:00.142Z,99.90
2023-02-19T08:14:28.970Z,99.90
2023-02-19T08:16:58.916Z,99.90
2023-02-19T08:19:27.483Z,99.90
2023-02-19T08:21:55.743Z,99.90
2023-02-19T08:24:24.236Z,99.90
2023-02-19T08:26:52.651Z,99.90
2023-02-19T08:29:21.361Z,99.90
2023-02-19T08:31:49.781Z,99.90
2023-02-19T08:34:19.962Z,99.90
2023-02-19T08:36:48.223Z,99.90
2023-02-19T08:39:17.678Z,99.90
2023-02-19T08:41:47.927Z,99.90
2023-02-19T08:44:16.475Z,99.90
2023-02-19T08:46:44.708Z,99.90
2023-02-19T08:49:13.309Z,99.90
2023-02-19T08:51:42.847Z,99.90
2023-02-19T08:54:11.459Z,99.90
2023-02-19T08:56:39.732Z,99.90
2023-02-19T08:59:08.237Z,99.90
2023-02-19T09:01:36.478Z,99.90
2023-02-19T09:04:05.330Z,99.90
2023-02-19T09:06:33.726Z,99.90
2023-02-19T09:09:03.977Z,99.90
2023-02-19T09:11:32.266Z,99.90
2023-02-19T09:14:02.454Z,99.90
2023-02-19T09:16:30.768Z,99.90
2023-02-19T09:18:59.472Z,99.90
2023-02-19T09:21:28.124Z,99.90
2023-02-19T09:23:56.600Z,99.90
2023-02-19T09:26:26.149Z,99.90
2023-02-19T09:28:55.976Z,99.90
2023-02-19T09:31:24.430Z,99.90
2023-02-19T09:33:54.925Z,99.90
2023-02-19T09:36:23.521Z,99.90
2023-02-19T09:38:54.484Z,99.90
2023-02-19T09:41:30.568Z,99.90
2023-02-19T09:44:00.687Z,99.90
2023-02-19T09:46:33.417Z,99.90
2023-02-19T09:49:06.282Z,99.90
2023-02-19T09:51:37.017Z,99.90
2023-02-19T09:54:12.057Z,99.90
2023-02-19T09:56:41.852Z,99.90
2023-02-19T09:59:19.355Z,99.90
2023-02-19T10:01:50.875Z,99.90
2023-02-19T10:04:19.495Z,99.90
2023-02-19T10:06:48.596Z,99.90
2023-02-19T10:09:23.612Z,99.90
2023-02-19T10:11:54.761Z,99.90
2023-02-19T10:14:30.195Z,99.90
2023-02-19T10:17:02.069Z,99.90
2023-02-19T10:19:30.612Z,99.90
2023-02-19T10:21:59.179Z,99.90
2023-02-19T10:24:30.477Z,99.90
2023-02-19T10:27:00.094Z,99.90
2023-02-19T10:29:28.598Z,99.90
2023-02-19T10:32:18.242Z,99.90
2023-02-19T10:34:47.006Z,99.90
2023-02-19T10:37:18.011Z,99.90
2023-02-19T10:39:48.818Z,99.90
2023-02-19T10:42:20.848Z,99.90
2023-02-19T10:44:55.565Z,99.90
2023-02-19T10:47:26.688Z,99.90
2023-02-19T10:49:58.304Z,99.90
2023-02-19T10:52:29.798Z,99.90
2023-02-19T10:55:15.095Z,99.90
2023-02-19T10:57:44.732Z,99.90
2023-02-19T11:00:26.712Z,99.90
2023-02-19T11:03:25.879Z,99.90
2023-02-19T11:06:02.222Z,99.90
2023-02-19T11:08:31.457Z,99.90
2023-02-19T11:10:59.983Z,99.90
2023-02-19T11:13:32.732Z,99.90
2023-02-19T11:16:01.933Z,99.90
2023-02-19T11:18:32.890Z,99.90
2023-02-19T11:21:03.822Z,99.90
2023-02-19T11:23:35.398Z,99.90
2023-02-19T11:26:07.198Z,99.90
2023-02-19T11:28:39.607Z,99.90
2023-02-19T11:31:22.722Z,99.90
2023-02-19T11:33:57.244Z,99.90
2023-02-19T11:36:35.074Z,99.90
2023-02-19T11:39:22.659Z,99.90
2023-02-19T11:42:04.644Z,99.90
2023-02-19T11:44:43.644Z,99.90
2023-02-19T11:47:42.543Z,99.90
2023-02-19T11:50:19.739Z,99.90
2023-02-19T11:52:58.612Z,99.90
2023-02-19T11:55:38.775Z,99.90
2023-02-19T11:58:30.809Z,99.90
2023-02-19T12:01:11.334Z,99.90
2023-02-19T12:04:09.759Z,99.90
2023-02-19T12:06:50.717Z,99.90
2023-02-19T12:09:33.263Z,99.90
2023-02-19T12:12:16.884Z,99.90
2023-02-19T12:15:21.731Z,99.90
2023-02-19T12:18:05.730Z,99.90
2023-02-19T12:20:43.872Z,99.90
2023-02-19T12:23:39.195Z,99.90
2023-02-19T12:26:18.899Z,99.90
2023-02-19T12:29:06.123Z,99.90
2023-02-19T12:31:56.686Z,99.90
2023-02-19T12:34:57.586Z,99.90
2023-02-19T12:37:39.572Z,99.90
2023-02-19T12:40:22.545Z,99.90
2023-02-19T12:43:07.443Z,99.90
2023-02-19T12:45:42.206Z,99.90
2023-02-19T12:48:18.906Z,99.90
2023-02-19T12:50:51.725Z,99.90
2023-02-19T12:53:41.766Z,99.90
2023-02-19T12:56:15.740Z,99.90
2023-02-19T12:58:47.087Z,99.90
2023-02-19T13:01:20.853Z,99.20
2023-02-19T13:03:54.800Z,98.40
2023-02-19T13:06:32.633Z,97.50
2023-02-19T13:09:08.886Z,96.90
2023-02-19T13:11:41.296Z,96.30
2023-02-19T13:14:20.337Z,95.80
2023-02-19T13:16:55.539Z,95.30
2023-02-19T13:19:24.083Z,94.70
2023-02-19T13:22:16.374Z,94.70
2023-02-19T13:24:47.574Z,94.30
2023-02-19T13:27:34.804Z,94.20
2023-02-19T13:30:22.979Z,93.80
2023-02-19T13:33:01.824Z,94.20
2023-02-19T13:36:10.282Z,94.30
2023-02-19T13:38:40.551Z,94.40
2023-02-19T13:41:19.891Z,94.70
2023-02-19T13:43:55.275Z,95.10
2023-02-19T13:46:24.328Z,95.20
2023-02-19T13:49:40.365Z,95.30
2023-02-19T13:52:40.614Z,95.00
2023-02-19T13:55:46.753Z,94.80
2023-02-19T13:58:57.494Z,94.90
2023-02-19T14:02:17.764Z,95.30
2023-02-19T14:04:51.898Z,95.80
2023-02-19T14:07:48.398Z,96.20
2023-02-19T14:11:02.026Z,96.30
2023-02-19T14:14:11.174Z,96.00
2023-02-19T14:17:08.447Z,95.70
2023-02-19T14:19:50.797Z,95.60
2023-02-19T14:23:04.756Z,95.70
2023-02-19T14:25:39.479Z,95.10
2023-02-19T14:28:30.026Z,94.70
2023-02-19T14:31:01.754Z,94.30
2023-02-19T14:33:33.476Z,94.40
2023-02-19T14:36:07.110Z,94.30
2023-02-19T14:38:39.734Z,94.10
2023-02-19T14:41:11.344Z,94.10
2023-02-19T14:43:40.871Z,94.30
2023-02-19T14:46:15.781Z,94.50
2023-02-19T14:48:47.154Z,94.40
2023-02-19T14:51:24.191Z,94.40
2023-02-19T14:53:54.208Z,94.30
2023-02-19T14:56:26.126Z,94.40
2023-02-19T14:59:23.066Z,94.50
2023-02-19T15:01:59.114Z,94.50
2023-02-19T15:04:29.990Z,94.60
2023-02-19T15:07:03.313Z,94.70
2023-02-19T15:09:34.344Z,94.80
2023-02-19T15:12:04.228Z,94.80
2023-02-19T15:14:34.475Z,95.10
2023-02-19T15:17:07.128Z,95.50
2023-02-19T15:19:39.624Z,95.90
2023-02-19T15:22:12.952Z,95.90
2023-02-19T15:24:48.561Z,96.20
2023-02-19T15:27:20.518Z,96.50
2023-02-19T15:29:53.293Z,96.70
2023-02-19T15:32:24.399Z,96.80
2023-02-19T15:34:57.401Z,96.80
2023-02-19T15:37:29.488Z,97.00
2023-02-19T15:40:00.058Z,97.00
2023-02-19T15:42:31.237Z,96.90
2023-02-19T15:45:04.053Z,97.10
2023-02-19T15:47:38.313Z,97.20
2023-02-19T15:50:11.486Z,97.20
2023-02-19T15:52:48.099Z,97.10
2023-02-19T15:55:29.595Z,97.30
2023-02-19T15:58:05.102Z,97.60
2023-02-19T16:00:39.865Z,97.50
2023-02-19T16:03:14.533Z,97.40
2023-02-19T16:05:43.137Z,97.50
2023-02-19T16:08:23.721Z,97.70
2023-02-19T16:10:57.162Z,97.70
2023-02-19T16:13:26.859Z,98.30
2023-02-19T16:16:02.256Z,98.10
2023-02-19T16:18:31.212Z,98.60
2023-02-19T16:20:59.988Z,99.10
2023-02-19T16:23:30.755Z,99.30
2023-02-19T16:26:01.117Z,99.80
2023-02-19T16:28:32.656Z,99.90
2023-02-19T16:31:03.286Z,99.90
2023-02-19T16:33:37.390Z,99.90
2023-02-19T16:36:29.856Z,99.90
2023-02-19T16:39:16.106Z,99.90
2023-02-19T16:42:17.029Z,99.90
2023-02-19T16:44:46.425Z,99.90
2023-02-19T16:47:29.837Z,99.90
2023-02-19T16:50:00.153Z,99.90
2023-02-19T16:52:29.459Z,99.90
2023-02-19T16:54:59.302Z,99.90
2023-02-19T16:57:27.741Z,99.90
2023-02-19T16:59:55.923Z,99.90
2023-02-19T17:02:25.638Z,99.90
2023-02-19T17:04:55.771Z,99.90
2023-02-19T17:07:24.697Z,99.90
2023-02-19T17:09:52.986Z,99.90
2023-02-19T17:12:23.979Z,99.90
2023-02-19T17:14:52.239Z,99.90
2023-02-19T17:17:20.674Z,99.90
2023-02-19T17:19:48.843Z,99.90
2023-02-19T17:22:17.810Z,99.90
2023-02-19T17:24:46.492Z,99.90
2023-02-19T17:27:15.093Z,99.90
2023-02-19T17:29:44.897Z,99.90
2023-02-19T17:32:14.612Z,99.90
2023-02-19T17:34:43.046Z,99.90
2023-02-19T17:37:11.811Z,99.90
2023-02-19T17:39:40.197Z,99.90
2023-02-19T17:42:08.884Z,99.90
2023-02-19T17:44:37.158Z,99.90
2023-02-19T17:47:07.058Z,99.90
2023-02-19T17:49:36.352Z,99.90
2023-02-19T17:52:05.629Z,99.90
2023-02-19T17:54:34.366Z,99.90
2023-02-19T17:57:02.912Z,99.90
2023-02-19T17:59:31.207Z,99.90
2023-02-19T18:01:59.775Z,99.90
2023-02-19T18:04:29.531Z,99.90
2023-02-19T18:06:58.370Z,99.90
2023-02-19T18:09:26.628Z,99.90
2023-02-19T18:11:55.249Z,99.90
2023-02-19T18:14:23.995Z,99.90
2023-02-19T18:16:52.636Z,99.90
2023-02-19T18:19:22.858Z,99.90
2023-02-19T18:21:53.438Z,99.90
2023-02-19T18:24:21.617Z,99.90
2023-02-19T18:26:50.162Z,99.90
2023-02-19T18:29:19.971Z,99.90
2023-02-19T18:31:48.638Z,99.90
2023-02-19T18:34:19.400Z,99.90
2023-02-19T18:36:48.557Z,99.90
2023-02-19T18:39:18.181Z,99.90
2023-02-19T18:41:50.528Z,99.90
2023-02-19T18:44:20.263Z,99.90
2023-02-19T18:46:48.943Z,99.90
2023-02-19T18:49:18.162Z,99.90
2023-02-19T18:51:47.714Z,99.90
2023-02-19T18:54:17.466Z,99.90
2023-02-19T18:56:47.034Z,99.90
2023-02-19T18:59:15.565Z,99.90
2023-02-19T19:01:44.569Z,99.90
2023-02-19T19:04:13.114Z,99.90
2023-02-19T19:06:41.837Z,99.90
2023-02-19T19:09:11.286Z,99.90
2023-02-19T19:11:41.728Z,99.90
2023-02-19T19:14:09.950Z,99.90
2023-02-19T19:16:38.630Z,99.90
2023-02-19T19:19:06.804Z,99.90
2023-02-19T19:21:35.361Z,99.90
2023-02-19T19:24:03.702Z,99.90
2023-02-19T19:26:32.485Z,99.90
2023-02-19T19:29:02.623Z,99.90
2023-02-19T19:31:37.034Z,99.90
2023-02-19T19:34:05.646Z,99.90
2023-02-19T19:36:34.467Z,99.90
2023-02-19T19:39:02.892Z,99.90
2023-02-19T19:41:32.631Z,99.90
2023-02-19T19:44:13.275Z,99.90
2023-02-19T19:46:45.727Z,99.90
2023-02-19T19:49:17.544Z,99.90
2023-02-19T19:51:46.881Z,99.90
2023-02-19T19:54:16.034Z,99.90
2023-02-19T19:56:46.395Z,99.90
2023-02-19T19:59:17.977Z,99.90
2023-02-19T20:01:51.340Z,99.90
2023-02-19T20:04:21.329Z,99.90
2023-02-19T20:06:50.655Z,99.90
2023-02-19T20:09:20.093Z,99.90
2023-02-19T20:11:50.239Z,99.90
2023-02-19T20:14:21.650Z,99.90
2023-02-19T20:16:51.038Z,99.90
2023-02-19T20:19:21.096Z,99.90
2023-02-19T20:21:51.549Z,99.90
2023-02-19T20:24:24.110Z,99.90
2023-02-19T20:26:54.569Z,99.90
2023-02-19T20:29:24.947Z,99.90
2023-02-19T20:31:53.910Z,99.90
2023-02-19T20:34:24.463Z,99.90
2023-02-19T20:36:52.959Z,99.90
2023-02-19T20:39:22.542Z,99.90
2023-02-19T20:41:52.640Z,99.90
2023-02-19T20:44:21.331Z,99.90
2023-02-19T20:46:52.657Z,99.90
2023-02-19T20:49:23.135Z,99.90
2023-02-19T20:51:54.817Z,99.90
2023-02-19T20:54:26.066Z,99.90
2023-02-19T20:56:56.481Z,99.90
2023-02-19T20:59:30.512Z,99.90
2023-02-19T21:02:00.554Z,99.90
2023-02-19T21:04:29.212Z,99.90
2023-02-19T21:06:58.359Z,99.90
2023-02-19T21:09:26.943Z,99.90
2023-02-19T21:11:55.787Z,99.90
2023-02-19T21:14:24.346Z,99.90
2023-02-19T21:16:53.890Z,99.90
2023-02-19T21:19:23.646Z,99.90
2023-02-19T21:21:52.239Z,99.90
2023-02-19T21:24:20.812Z,99.90
2023-02-19T21:26:49.607Z,99.90
2023-02-19T21:29:21.125Z,99.90
2023-02-19T21:31:51.730Z,99.90
2023-02-19T21:34:22.642Z,99.90
2023-02-19T21:36:52.946Z,99.90
2023-02-19T21:39:22.950Z,99.90
2023-02-19T21:41:51.752Z,99.90
2023-02-19T21:44:21.072Z,99.90
2023-02-19T21:46:50.029Z,99.90
2023-02-19T21:49:18.682Z,99.90
2023-02-19T21:51:48.126Z,99.90
2023-02-19T21:54:21.182Z,99.90
2023-02-19T21:56:49.711Z,99.90
2023-02-19T21:59:17.892Z,99.90
2023-02-19T22:01:47.078Z,99.90
2023-02-19T22:04:17.282Z,99.90
2023-02-19T22:06:46.066Z,99.90
2023-02-19T22:09:15.865Z,99.90
2023-02-19T22:11:45.713Z,99.90
2023-02-19T22:14:13.964Z,99.90
2023-02-19T22:16:42.541Z,99.90
2023-02-19T22:19:12.104Z,99.90
2023-02-19T22:21:44.044Z,99.90
2023-02-19T22:24:17.657Z,99.90
2023-02-19T22:26:50.536Z,99.90
2023-02-19T22:29:19.057Z,99.90
2023-02-19T22:31:47.899Z,99.90
2023-02-19T22:34:16.537Z,99.90
2023-02-19T22:36:45.566Z,99.90
2023-02-19T22:39:18.659Z,99.90
2023-02-19T22:41:48.888Z,99.90
2023-02-19T22:44:17.155Z,99.90
2023-02-19T22:46:50.697Z,99.90
2023-02-19T22:49:19.704Z,99.90
2023-02-19T22:51:54.614Z,99.90
2023-02-19T22:54:26.813Z,99.90
2023-02-19T22:56:57.257Z,99.90
2023-02-19T22:59:25.981Z,99.90
2023-02-19T23:01:55.172Z,99.90
2023-02-19T23:04:25.278Z,99.90
2023-02-19T23:06:54.001Z,99.90
2023-02-19T23:09:25.207Z,99.90
2023-02-19T23:11:54.510Z,99.90
2023-02-19T23:14:24.379Z,99.90
2023-02-19T23:16:52.914Z,99.90
2023-02-19T23:19:21.189Z,99.90
2023-02-19T23:21:50.402Z,99.90
2023-02-19T23:24:18.924Z,99.90
2023-02-19T23:26:49.908Z,99.90
2023-02-19T23:29:20.602Z,99.90
2023-02-19T23:31:51.063Z,99.90
2023-02-19T23:34:20.078Z,99.90
2023-02-19T23:36:50.395Z,99.90
2023-02-19T23:39:21.520Z,99.90
2023-02-19T23:41:51.323Z,99.90
2023-02-19T23:44:20.377Z,99.90
2023-02-19T23:46:50.428Z,99.90
2023-02-19T23:49:19.673Z,99.90
2023-02-19T23:51:48.408Z,99.90
2023-02-19T23:54:16.689Z,99.90
2023-02-19T23:56:45.212Z,99.90
2023-02-19T23:59:13.801Z,99.90
